CW9533 Torre Faro Messina IT current weather conditions

sailwx.info

Wind from 171 at 4 knots gusting 13

Air temperature 13.3° C
Dewpoint 6.4° C

Last reported at 2017-Jan-20 17:43 UTC.
Time now 2017-Jan-20 18:10 UTC

Location: N 38°16' E 015°39'.
View on Google Maps.

See reports from other nearby stations

  
Tides and Currents Weather Stations Pressure Air Temp Water Temp Dewpoint Dewpoint Depression Visibility Wind Speed Wind Dir Waves Ship Positions
date/time (UTC)wind fromknots sea level pressurealtimeterstation pressurevisibilityair tempwater tempwave heightnotes
2017-Jan-20 17:43 171 4 gusting 13 13.3
2017-Jan-20 17:28 170 7 gusting 13 13.3
2017-Jan-20 17:13 171 8 gusting 16 13.3
2017-Jan-20 16:58 171 6 gusting 13 13.3
2017-Jan-20 16:43 171 6 gusting 15 13.9
2017-Jan-20 16:28 170 7 gusting 13 13.9
2017-Jan-20 16:13 170 7 gusting 13 13.9
2017-Jan-20 15:58 171 5 gusting 12 13.9
2017-Jan-20 15:43 170 5 gusting 12 13.9
2017-Jan-20 15:28 170 6 gusting 15 13.9
2017-Jan-20 15:13 170 9 gusting 16 13.9
2017-Jan-20 14:58 170 9 gusting 16 14.4
2017-Jan-20 14:43 170 9 gusting 19 14.4
2017-Jan-20 14:28 170 10 gusting 19 14.4
2017-Jan-20 14:13 171 10 gusting 19 14.4
2017-Jan-20 13:58 170 8 gusting 17 14.4
2017-Jan-20 13:43 170 10 gusting 19 14.4
2017-Jan-20 13:28 170 10 gusting 19 14.4
2017-Jan-20 13:13 170 7 gusting 17 15.0
2017-Jan-20 12:58 170 6 gusting 16 15.0
2017-Jan-20 12:43 170 7 gusting 15 15.0
2017-Jan-20 12:28 170 5 gusting 11 15.0
2017-Jan-20 12:13 170 6 gusting 13 15.0
2017-Jan-20 11:58 170 6 gusting 11 14.4
2017-Jan-20 11:43 147 3 gusting 6 13.9
2017-Jan-20 11:28 147 1 gusting 4 13.9
2017-Jan-20 11:12 147 3 gusting 7 13.9
2017-Jan-20 10:58 147 1 gusting 4 13.9
2017-Jan-20 10:43 147 13.3
2017-Jan-20 10:27 147 13.3
2017-Jan-20 10:12 148 13.3
2017-Jan-20 09:57 148 13.3
2017-Jan-20 09:42 148 12.8
2017-Jan-20 09:27 148 12.8
2017-Jan-20 09:12 148 1 gusting 3 12.8
2017-Jan-20 08:57 148 12.2
2017-Jan-20 08:42 148 12.2
2017-Jan-20 08:27 148 11.7
2017-Jan-20 08:12 148 11.1
2017-Jan-20 07:57 148 10.6
2017-Jan-20 07:42 148 9.4
2017-Jan-20 07:27 148 8.9
2017-Jan-20 07:12 148 8.3
2017-Jan-20 06:57 147 7.8
2017-Jan-20 06:42
2017-Jan-20 06:27
2017-Jan-20 06:12
2017-Jan-20 05:57
2017-Jan-20 05:42
2017-Jan-20 05:27
2017-Jan-20 05:11
2017-Jan-20 04:56
2017-Jan-20 04:41
2017-Jan-20 04:26 148 7.8
2017-Jan-20 04:11 148 7.8
2017-Jan-20 03:56 148 7.8
2017-Jan-20 03:41 148 0 gusting 2 7.8
2017-Jan-20 03:26 148 2 gusting 4 7.8
2017-Jan-20 03:11 148 2 gusting 4 7.8
2017-Jan-20 02:56 148 2 gusting 4 7.8
2017-Jan-20 02:41 148 1 gusting 3 7.8
2017-Jan-20 02:26 148 1 gusting 4 7.8
2017-Jan-20 02:11 148 2 gusting 4 7.8
2017-Jan-20 01:56 148 1 gusting 4 7.8
2017-Jan-20 01:41 148 8.3
2017-Jan-20 01:26 148 1 gusting 3 8.3
2017-Jan-20 01:11 148 1 gusting 3 8.3
2017-Jan-20 00:56 148 0 gusting 3 8.3
2017-Jan-20 00:41 148 0 gusting 4 8.3
2017-Jan-20 00:26 148 1 gusting 4 8.3
2017-Jan-20 00:11 148 1 gusting 4 8.3
2017-Jan-19 23:56 148 1 gusting 2 8.3
2017-Jan-19 23:41 148 8.9
2017-Jan-19 23:26 148 1 gusting 2 8.9
2017-Jan-19 23:11 148 8.9
2017-Jan-19 22:56 148 8.9
2017-Jan-19 22:41 148 8.9
2017-Jan-19 22:26 148 1 gusting 4 8.9
2017-Jan-19 22:11 148 1 gusting 4 8.9
2017-Jan-19 21:56 148 2 gusting 5 8.9
2017-Jan-19 21:41 148 3 gusting 5 8.9
2017-Jan-19 21:26 148 1 gusting 5 8.9
2017-Jan-19 21:11 148 2 gusting 4 8.9
2017-Jan-19 20:56 148 1 gusting 5 8.9
2017-Jan-19 20:41 148 1 gusting 3 8.9
2017-Jan-19 20:26 148 0 gusting 3 8.9
2017-Jan-19 20:11 148 1 gusting 4 9.4
2017-Jan-19 19:56 148 0 gusting 2 9.4
2017-Jan-19 19:41 148 1 gusting 4 10.0
2017-Jan-19 19:26 148 1 gusting 5 9.4
2017-Jan-19 19:11 147 1 gusting 4 10.0
2017-Jan-19 18:55 147 0 gusting 2 10.0
2017-Jan-19 18:40 147 10.0
2017-Jan-19 18:25 147 10.6
2017-Jan-19 18:10 147 10.6
2017-Jan-19 17:55 147 10.6
2017-Jan-19 17:40 147 10.6
2017-Jan-19 17:25 147 0 gusting 3 10.6
2017-Jan-19 17:10 147 10.6
2017-Jan-19 16:55 147 2 gusting 3 10.6
2017-Jan-19 16:40 147 11.1
2017-Jan-19 16:25 147 11.1
2017-Jan-19 16:10 147 11.1
2017-Jan-19 15:55 147 2 gusting 5 11.1
2017-Jan-19 15:40 147 0 gusting 5 11.1
2017-Jan-19 15:25 147 1 gusting 4 11.1
2017-Jan-19 15:10 147 2 gusting 7 11.1
2017-Jan-19 14:55 147 3 gusting 6 11.1
2017-Jan-19 14:40 147 3 gusting 8 11.7
2017-Jan-19 14:25 147 3 gusting 8 11.7
2017-Jan-19 14:10 147 3 gusting 8 11.7
2017-Jan-19 13:55 147 2 gusting 8 11.7
2017-Jan-19 13:40 146 5 gusting 11 11.1
2017-Jan-19 13:25 146 5 gusting 10 11.1
2017-Jan-19 13:10 146 7 gusting 13 11.1
2017-Jan-19 12:55 147 5 gusting 10 12.2
2017-Jan-19 12:40 146 2 gusting 6 12.2
2017-Jan-19 12:25 147 4 gusting 9 12.2
2017-Jan-19 12:10 147 1 gusting 7 12.2
2017-Jan-19 11:55 147 2 gusting 7 12.2
2017-Jan-19 11:40 147 2 gusting 6 12.2
2017-Jan-19 11:25 147 4 gusting 8 12.2
2017-Jan-19 11:10 147 1 gusting 6 12.8
2017-Jan-19 10:55 171 2 gusting 10 13.3
2017-Jan-19 10:40 158 0 gusting 5 13.3
2017-Jan-19 10:25 157 2 gusting 6 13.3
2017-Jan-19 10:10 158 12.2
2017-Jan-19 09:55 158 0 gusting 3 12.2
2017-Jan-19 09:40 157 3 gusting 6 12.2
2017-Jan-19 09:25 158 0 gusting 4 11.7
2017-Jan-19 09:10 158 0 gusting 4 11.7
2017-Jan-19 08:55 158 0 gusting 4 12.2
2017-Jan-19 08:40 158 11.7
2017-Jan-19 08:24 158 0 gusting 2 11.7
2017-Jan-19 08:09 158 11.7
2017-Jan-19 07:55 158 11.1
2017-Jan-19 07:39 158 0 gusting 3 10.6
2017-Jan-19 07:24 158 10.0
2017-Jan-19 07:10 158 1 gusting 4 10.0
2017-Jan-19 06:54 157 0 gusting 3 8.9
2017-Jan-19 06:39
2017-Jan-19 06:24
2017-Jan-19 06:09
2017-Jan-19 05:54
2017-Jan-19 05:39
2017-Jan-19 05:24
2017-Jan-19 05:09
2017-Jan-19 04:54
2017-Jan-19 04:39
2017-Jan-19 04:24 147 1 gusting 4 9.4
2017-Jan-19 04:09 147 0 gusting 6 9.4
2017-Jan-19 03:53 147 5 gusting 13 9.4
2017-Jan-19 03:38 171 2 gusting 6 9.4
2017-Jan-19 03:23 171 9.4
2017-Jan-19 03:08 171 0 gusting 2 9.4
2017-Jan-19 02:53 171 8.9
2017-Jan-19 02:38 171 8.9
2017-Jan-19 02:23 171 1 gusting 3 8.9
2017-Jan-19 02:08 171 8.3
2017-Jan-19 01:53 171 0 gusting 3 7.8
2017-Jan-19 01:38 171 1 gusting 4 8.3
2017-Jan-19 01:23 171 0 gusting 2 8.3
2017-Jan-19 01:08 171 8.3
2017-Jan-19 00:53 171 2 gusting 4 8.3
2017-Jan-19 00:38 171 1 gusting 4 7.8
2017-Jan-19 00:23 171 2 gusting 6 7.8
2017-Jan-19 00:08 171 2 gusting 6 7.2
2017-Jan-18 23:53 171 1 gusting 6 7.8
2017-Jan-18 23:38 171 3 gusting 5 7.8
2017-Jan-18 23:23 171 0 gusting 3 7.8
2017-Jan-18 23:08 171 3 gusting 6 7.8
2017-Jan-18 22:53 171 2 gusting 6 7.8
2017-Jan-18 22:38 171 2 gusting 4 7.8
2017-Jan-18 22:23 171 1 gusting 4 7.8
2017-Jan-18 22:08 171 2 gusting 4 7.2
2017-Jan-18 21:53 171 2 gusting 6 7.2
2017-Jan-18 21:38 171 3 gusting 6 7.8
2017-Jan-18 21:23 171 2 gusting 5 7.2
2017-Jan-18 21:08 171 1 gusting 3 7.8
2017-Jan-18 20:53 171 1 gusting 4 7.8
2017-Jan-18 20:38 171 0 gusting 3 7.8
2017-Jan-18 20:23 171 0 gusting 4 7.8
2017-Jan-18 20:08 171 7.8
2017-Jan-18 19:52 171 7.8
2017-Jan-18 19:37 171 0 gusting 4 7.8
2017-Jan-18 19:23 171 1 gusting 5 8.3
2017-Jan-18 19:07 171 0 gusting 3 8.3
2017-Jan-18 18:52 171 1 gusting 3 8.3
2017-Jan-18 18:37 171 2 gusting 5 8.3
2017-Jan-18 18:22 171 2 gusting 6 8.3
2017-Jan-18 18:07 171 2 gusting 5 8.3